地図

経路データ

SID SEASON NUMBER BASIN SUBBASIN NAME ISO_TIME NATURE LAT LON WMO_WIND WMO_PRES WMO_AGENCY TRACK_TYPE DIST2LAND LANDFALL IFLAG USA_AGENCY USA_ATCF_ID USA_LAT USA_LON USA_RECORD USA_STATUS USA_WIND USA_PRES USA_SSHS USA_R34_NE USA_R34_SE USA_R34_SW USA_R34_NW USA_R50_NE USA_R50_SE USA_R50_SW USA_R50_NW USA_R64_NE USA_R64_SE USA_R64_SW USA_R64_NW USA_POCI USA_ROCI USA_RMW USA_EYE TOKYO_LAT TOKYO_LON TOKYO_GRADE TOKYO_WIND TOKYO_PRES TOKYO_R50_DIR TOKYO_R50_LONG TOKYO_R50_SHORT TOKYO_R30_DIR TOKYO_R30_LONG TOKYO_R30_SHORT TOKYO_LAND CMA_LAT CMA_LON CMA_CAT CMA_WIND CMA_PRES HKO_LAT HKO_LON HKO_CAT HKO_WIND HKO_PRES NEWDELHI_LAT NEWDELHI_LON NEWDELHI_GRADE NEWDELHI_WIND NEWDELHI_PRES NEWDELHI_CI NEWDELHI_DP NEWDELHI_POCI REUNION_LAT REUNION_LON REUNION_TYPE REUNION_WIND REUNION_PRES REUNION_TNUM REUNION_CI REUNION_RMW REUNION_R34_NE REUNION_R34_SE REUNION_R34_SW REUNION_R34_NW REUNION_R50_NE REUNION_R50_SE REUNION_R50_SW REUNION_R50_NW REUNION_R64_NE REUNION_R64_SE REUNION_R64_SW REUNION_R64_NW BOM_LAT BOM_LON BOM_TYPE BOM_WIND BOM_PRES BOM_TNUM BOM_CI BOM_RMW BOM_R34_NE BOM_R34_SE BOM_R34_SW BOM_R34_NW BOM_R50_NE BOM_R50_SE BOM_R50_SW BOM_R50_NW BOM_R64_NE BOM_R64_SE BOM_R64_SW BOM_R64_NW BOM_ROCI BOM_POCI BOM_EYE BOM_POS_METHOD BOM_PRES_METHOD NADI_LAT NADI_LON NADI_CAT NADI_WIND NADI_PRES WELLINGTON_LAT WELLINGTON_LON WELLINGTON_WIND WELLINGTON_PRES DS824_LAT DS824_LON DS824_STAGE DS824_WIND DS824_PRES TD9636_LAT TD9636_LON TD9636_STAGE TD9636_WIND TD9636_PRES TD9635_LAT TD9635_LON TD9635_WIND TD9635_PRES TD9635_ROCI NEUMANN_LAT NEUMANN_LON NEUMANN_CLASS NEUMANN_WIND NEUMANN_PRES MLC_LAT MLC_LON MLC_CLASS MLC_WIND MLC_PRES USA_GUST BOM_GUST BOM_GUST_PER REUNION_GUST REUNION_GUST_PER USA_SEAHGT USA_SEARAD_NE USA_SEARAD_SE USA_SEARAD_SW USA_SEARAD_NW STORM_SPEED STORM_DIR
2020314N12131 2020 41 WP MM VAMCO 2020-11-09 06:00:00 NR 12.0000 130.900 PROVISIONAL 567 567 O_____________ tcvitals WP252020 12.0000 130.900 25 1003 -1 1005 165 45 9 3
2020314N12131 2020 41 WP MM VAMCO 2020-11-09 09:00:00 NR 12.4347 130.920 PROVISIONAL 577 566 P_____________ WP252020 12.4347 130.920 27 1003 -1 1006 160 45 7 345
2020314N12131 2020 41 WP MM VAMCO 2020-11-09 12:00:00 NR 12.7000 130.700 PROVISIONAL 566 502 O_____________ tcvitals WP252020 12.7000 130.700 29 1004 -1 1008 155 45 8 289
2020314N12131 2020 41 WP MM VAMCO 2020-11-09 15:00:00 NR 12.7080 130.102 PROVISIONAL 502 427 P_____________ WP252020 12.7080 130.102 29 1003 -1 1007 167 67 13 270
2020314N12131 2020 41 WP MM VAMCO 2020-11-09 18:00:00 NR 12.7000 129.400 PROVISIONAL 427 377 O_____________ tcvitals WP252020 12.7000 129.400 29 1003 -1 1007 180 89 12 283
2020314N12131 2020 41 WP MM VAMCO 2020-11-09 21:00:00 NR 12.9849 128.890 PROVISIONAL 379 348 P_____________ WP252020 12.9849 128.890 32 1002 -1 1007 202 89 11 304
2020314N12131 2020 41 WP MM VAMCO 2020-11-10 00:00:00 NR 13.3000 128.500 PROVISIONAL 348 332 O_____________ tcvitals WP252020 13.3000 128.500 35 1002 0 1008 225 89 7 305
2020314N12131 2020 41 WP MM VAMCO 2020-11-10 03:00:00 NR 13.4071 128.280 PROVISIONAL 332 307 P_____________ WP252020 13.4071 128.280 37 1000 0 1008 217 77 5 292
2020314N12131 2020 41 WP MM VAMCO 2020-11-10 06:00:00 NR 13.5000 128.000 PROVISIONAL 307 265 O_____________ tcvitals WP252020 13.5000 128.000 39 998 0 100 126 85 120 1008 210 65 9 289
2020314N12131 2020 41 WP MM VAMCO 2020-11-10 09:00:00 NR 13.7130 127.373 PROVISIONAL 265 233 P_____________ WP252020 13.7130 127.373 45 996 0 87 110 77 115 1008 217 45 14 292
2020314N12131 2020 41 WP MM VAMCO 2020-11-10 12:00:00 NR 14.0000 126.700 PROVISIONAL 233 209 O_____________ tcvitals WP252020 14.0000 126.700 51 995 0 75 95 70 110 1008 225 25 12 303
2020314N12131 2020 41 WP MM VAMCO 2020-11-10 15:00:00 NR 14.3794 126.307 PROVISIONAL 212 184 P_____________ WP252020 14.3794 126.307 55 992 0 107 115 50 115 1007 205 30 10 312
2020314N12131 2020 41 WP MM VAMCO 2020-11-10 18:00:00 NR 14.7000 125.900 PROVISIONAL 184 139 O_____________ tcvitals WP252020 14.7000 125.900 60 989 0 140 135 30 120 1007 185 35 11 293
2020314N12131 2020 41 WP MM VAMCO 2020-11-10 21:00:00 NR 14.8178 125.222 PROVISIONAL 132 92 P_____________ WP252020 14.8178 125.222 67 985 1 150 132 62 135 1008 197 35 14 274
2020314N12131 2020 41 WP MM VAMCO 2020-11-11 00:00:00 NR 14.8000 124.500 PROVISIONAL 92 78 O_____________ tcvitals WP252020 14.8000 124.500 74 982 1 160 130 95 150 1010 210 35 13 265
2020314N12131 2020 41 WP MM VAMCO 2020-11-11 03:00:00 NR 14.7074 123.882 PROVISIONAL 81 68 P_____________ WP252020 14.7074 123.882 77 978 1 160 122 92 162 1010 210 27 11 259
2020314N12131 2020 41 WP MM VAMCO 2020-11-11 06:00:00 NR 14.6000 123.400 PROVISIONAL 68 55 O_____________ tcvitals WP252020 14.6000 123.400 80 975 1 160 115 90 175 1010 210 20 7 257
2020314N12131 2020 41 WP MM VAMCO 2020-11-11 09:00:00 NR 14.5543 123.187 PROVISIONAL 55 44 P_____________ WP252020 14.5543 123.187 84 972 2 137 102 97 147 1008 215 12 5 270
2020314N12131 2020 41 WP MM VAMCO 2020-11-11 12:00:00 NR 14.6000 122.900 PROVISIONAL 44 44 O_____________ tcvitals WP252020 14.6000 122.900 89 970 2 115 90 105 120 1007 220 5 10 283
2020314N12131 2020 41 WP MM VAMCO 2020-11-11 15:00:00 NR 14.7853 122.190 PROVISIONAL 54 0 P_____________ WP252020 14.7853 122.190 91 965 2 172 110 105 217 1007 220 5 16 284
2020314N12131 2020 41 WP MM VAMCO 2020-11-11 18:00:00 NR 15.0000 121.300 PROVISIONAL 0 0 O_____________ tcvitals WP252020 15.0000 121.300 93 961 2 230 130 105 315 1007 220 5 18 281
2020314N12131 2020 41 WP MM VAMCO 2020-11-11 21:00:00 NR 15.1302 120.412 PROVISIONAL 0 0 P_____________ WP252020 15.1302 120.412 86 967 2 227 130 105 310 1007 220 7 17 277
2020314N12131 2020 41 WP MM VAMCO 2020-11-12 00:00:00 NR 15.2000 119.600 PROVISIONAL 39 39 O_____________ tcvitals WP252020 15.2000 119.600 80 974 1 225 130 105 305 1007 220 10 14 274
2020314N12131 2020 41 WP MM VAMCO 2020-11-12 03:00:00 NR 15.2145 119.005 PROVISIONAL 99 99 P_____________ WP252020 15.2145 119.005 77 975 1 217 122 100 297 1006 210 12 11 270
2020314N12131 2020 41 WP MM VAMCO 2020-11-12 06:00:00 NR 15.2000 118.500 PROVISIONAL 151 151 O_____________ tcvitals WP252020 15.2000 118.500 74 977 1 210 115 95 290 1006 200 14 10 269
2020314N12131 2020 41 WP MM VAMCO 2020-11-12 09:00:00 NR 15.1999 117.950 PROVISIONAL 202 202 P_____________ WP252020 15.1999 117.950 74 978 1 210 112 95 280 1007 200 14 11 270
2020314N12131 2020 41 WP MM VAMCO 2020-11-12 12:00:00 NR 15.2000 117.400 PROVISIONAL 262 262 O_____________ tcvitals WP252020 15.2000 117.400 74 979 1 210 110 95 270 1008 200 14 11 269
2020314N12131 2020 41 WP MM VAMCO 2020-11-12 15:00:00 NR 15.1850 116.827 PROVISIONAL 323 323 P_____________ WP252020 15.1850 116.827 72 980 1 145 90 77 250 1007 190 22 11 270
2020314N12131 2020 41 WP MM VAMCO 2020-11-12 18:00:00 NR 15.2000 116.300 PROVISIONAL 375 375 O_____________ tcvitals WP252020 15.2000 116.300 70 982 1 80 70 60 230 1006 180 30 9 277
2020314N12131 2020 41 WP MM VAMCO 2020-11-12 21:00:00 NR 15.2997 115.900 PROVISIONAL 414 414 P_____________ WP252020 15.2997 115.900 72 979 1 145 92 90 210 1006 180 30 8 285
2020314N12131 2020 41 WP MM VAMCO 2020-11-13 00:00:00 NR 15.4000 115.500 PROVISIONAL 454 454 O_____________ tcvitals WP252020 15.4000 115.500 74 977 1 210 115 120 190 1007 180 30 9 277
2020314N12131 2020 41 WP MM VAMCO 2020-11-13 03:00:00 NR 15.4076 114.965 PROVISIONAL 507 507 P_____________ WP252020 15.4076 114.965 74 977 1 192 102 115 182 1007 187 17 11 270
2020314N12131 2020 41 WP MM VAMCO 2020-11-13 06:00:00 NR 15.4000 114.400 PROVISIONAL 562 521 O_____________ tcvitals WP252020 15.4000 114.400 74 978 1 175 90 110 175 1007 195 5 10 272
2020314N12131 2020 41 WP MM VAMCO 2020-11-13 09:00:00 NR 15.4423 113.893 PROVISIONAL 521 470 P_____________ WP252020 15.4423 113.893 86 969 2 147 90 100 147 1007 195 9 10 276
2020314N12131 2020 41 WP MM VAMCO 2020-11-13 12:00:00 NR 15.5000 113.400 PROVISIONAL 470 417 O_____________ tcvitals WP252020 15.5000 113.400 99 961 3 120 90 90 120 1008 195 14 10 276
2020314N12131 2020 41 WP MM VAMCO 2020-11-13 15:00:00 NR 15.5423 112.907 PROVISIONAL 417 368 P_____________ WP252020 15.5423 112.907 107 953 3 150 102 108 142 1007 185 14 10 276
2020314N12131 2020 41 WP MM VAMCO 2020-11-13 18:00:00 NR 15.6000 112.400 PROVISIONAL 368 320 O_____________ tcvitals WP252020 15.6000 112.400 115 945 4 180 115 126 165 1007 175 14 10 278
2020314N12131 2020 41 WP MM VAMCO 2020-11-13 21:00:00 NR 15.6924 111.858 PROVISIONAL 320 265 P_____________ WP252020 15.6924 111.858 115 946 4 175 105 126 165 1008 165 13 11 281
2020314N12131 2020 41 WP MM VAMCO 2020-11-14 00:00:00 NR 15.8000 111.300 PROVISIONAL 265 218 O_____________ tcvitals WP252020 15.8000 111.300 115 948 4 170 95 126 165 1009 155 12 11 280
2020314N12131 2020 41 WP MM VAMCO 2020-11-14 03:00:00 NR 15.8850 110.727 PROVISIONAL 208 165 P_____________ WP252020 15.8850 110.727 110 953 3 150 80 103 137 1008 157 12 11 281
2020314N12131 2020 41 WP MM VAMCO 2020-11-14 06:00:00 NR 16.0000 110.200 PROVISIONAL 165 147 O_____________ tcvitals WP252020 16.0000 110.200 105 958 3 130 65 80 110 1008 160 12 10 289
2020314N12131 2020 41 WP MM VAMCO 2020-11-14 09:00:00 NR 16.1922 109.785 PROVISIONAL 147 125 P_____________ WP252020 16.1922 109.785 99 960 3 137 77 90 132 1008 155 12 9 298
2020314N12131 2020 41 WP MM VAMCO 2020-11-14 12:00:00 NR 16.4000 109.400 PROVISIONAL 125 93 O_____________ tcvitals WP252020 16.4000 109.400 93 963 2 145 90 100 155 1008 150 12 9 294
2020314N12131 2020 41 WP MM VAMCO 2020-11-14 15:00:00 NR 16.5501 108.935 PROVISIONAL 92 69 P_____________ WP252020 16.5501 108.935 86 970 2 142 87 97 152 1009 147 12 9 289
2020314N12131 2020 41 WP MM VAMCO 2020-11-14 18:00:00 NR 16.7000 108.500 PROVISIONAL 70 64 O_____________ tcvitals WP252020 16.7000 108.500 80 978 1 140 85 95 150 1010 145 12 7 296
2020314N12131 2020 41 WP MM VAMCO 2020-11-14 21:00:00 NR 16.8770 108.237 PROVISIONAL 70 61 P_____________ WP252020 16.8770 108.237 80 978 1 125 77 75 132 1010 145 12 7 305
2020314N12131 2020 41 WP MM VAMCO 2020-11-15 00:00:00 NR 17.1000 107.900 PROVISIONAL 64 38 O_____________ tcvitals WP252020 17.1000 107.900 80 979 1 110 70 55 115 1010 145 12 11 299
2020314N12131 2020 41 WP MM VAMCO 2020-11-15 03:00:00 NR 17.4038 107.253 PROVISIONAL 39 0 P_____________ WP252020 17.4038 107.253 75 982 1 107 67 50 92 1009 147 12 15 294
2020314N12131 2020 41 WP MM VAMCO 2020-11-15 06:00:00 NR 17.7000 106.500 PROVISIONAL 0 0 O_____________ tcvitals WP252020 17.7000 106.500 70 985 1 105 65 45 70 1008 150 12 15 290
2020314N12131 2020 41 WP MM VAMCO 2020-11-15 09:00:00 NR 17.9067 105.818 PROVISIONAL 0 0 P_____________ WP252020 17.9067 105.818 -1 13 286
2020314N12131 2020 41 WP MM VAMCO 2020-11-15 12:00:00 NR 18.0541 105.195 PROVISIONAL 0 O_____________ tcvitals WP252020 18.0541 105.195 -1 12 284

デジタル台風データ・検索

IBTrACS Databaseについて

本データベースは、米国NOAAが公開する1842年以降の世界の熱帯低気圧のベストトラックデータアーカイブInternational Best Track Archive for Climate Stewardship (IBTrACS)を、ウェブで閲覧しやすい形式に変換したものです。

最終更新日:2021-10-08